createdAt,value
2023-05-15T00:00:44.154Z,10.15
2023-05-15T00:03:18.833Z,9.88
2023-05-15T00:05:50.576Z,11.80
2023-05-15T00:08:21.876Z,11.40
2023-05-15T00:11:00.872Z,10.93
2023-05-15T00:13:46.509Z,11.22
2023-05-15T00:16:12.696Z,11.20
2023-05-15T00:18:44.113Z,11.30
2023-05-15T00:21:19.949Z,12.03
2023-05-15T00:23:52.395Z,11.63
2023-05-15T00:26:24.661Z,11.18
2023-05-15T00:28:57.152Z,10.65
2023-05-15T00:31:29.698Z,12.13
2023-05-15T00:34:01.333Z,10.93
2023-05-15T00:36:40.334Z,10.98
2023-05-15T00:39:09.808Z,11.10
2023-05-15T00:41:41.282Z,10.43
2023-05-15T00:44:13.816Z,10.90
2023-05-15T00:46:46.693Z,10.65
2023-05-15T00:49:17.803Z,12.90
2023-05-15T00:51:49.792Z,11.80
2023-05-15T00:54:20.098Z,11.03
2023-05-15T00:56:56.124Z,11.78
2023-05-15T00:59:30.679Z,11.18
2023-05-15T01:02:00.961Z,13.60
2023-05-15T01:04:31.710Z,13.03
2023-05-15T01:07:04.883Z,12.33
2023-05-15T01:09:36.074Z,11.95
2023-05-15T01:12:07.259Z,12.13
2023-05-15T01:14:37.545Z,11.57
2023-05-15T01:17:07.714Z,11.00
2023-05-15T01:19:38.197Z,12.25
2023-05-15T01:22:10.000Z,10.93
2023-05-15T01:25:00.540Z,12.47
2023-05-15T01:27:44.062Z,11.57
2023-05-15T01:30:31.502Z,11.65
2023-05-15T01:33:19.708Z,11.00
2023-05-15T01:35:51.289Z,12.15
2023-05-15T01:38:31.745Z,13.40
2023-05-15T01:41:03.846Z,12.33
2023-05-15T01:43:41.018Z,11.90
2023-05-15T01:49:02.701Z,12.90
2023-05-15T01:51:33.466Z,12.90
2023-05-15T01:54:05.402Z,11.50
2023-05-15T01:56:36.326Z,11.80
2023-05-15T01:59:07.376Z,11.95
2023-05-15T02:01:38.344Z,11.10
2023-05-15T02:04:08.940Z,12.15
2023-05-15T02:06:39.747Z,11.48
2023-05-15T02:09:10.188Z,12.65
2023-05-15T02:11:40.481Z,12.98
2023-05-15T02:14:11.472Z,12.35
2023-05-15T02:16:41.829Z,12.95
2023-05-15T02:19:12.283Z,12.15
2023-05-15T02:21:42.785Z,12.05
2023-05-15T02:24:13.605Z,13.70
2023-05-15T02:26:48.232Z,14.15
2023-05-15T02:29:19.681Z,14.13
2023-05-15T02:31:51.075Z,13.70
2023-05-15T02:34:28.402Z,13.38
2023-05-15T02:37:00.073Z,13.75
2023-05-15T02:39:31.248Z,13.98
2023-05-15T02:42:01.857Z,13.83
2023-05-15T02:44:32.991Z,13.00
2023-05-15T02:47:03.716Z,13.65
2023-05-15T02:49:34.031Z,14.00
2023-05-15T02:52:04.743Z,13.15
2023-05-15T02:54:34.988Z,12.58
2023-05-15T02:57:06.533Z,13.15
2023-05-15T02:59:37.447Z,12.18
2023-05-15T03:02:10.868Z,13.10
2023-05-15T03:04:41.719Z,12.30
2023-05-15T03:07:12.048Z,12.18
2023-05-15T03:09:43.232Z,12.45
2023-05-15T03:12:13.465Z,12.68
2023-05-15T03:14:43.719Z,12.53
2023-05-15T03:17:14.056Z,13.40
2023-05-15T03:19:44.332Z,14.73
2023-05-15T03:22:14.620Z,12.40
2023-05-15T03:24:44.811Z,12.00
2023-05-15T03:27:15.266Z,11.85
2023-05-15T03:29:46.044Z,12.68
2023-05-15T03:32:17.153Z,12.93
2023-05-15T03:34:47.760Z,13.30
2023-05-15T03:37:18.251Z,13.05
2023-05-15T03:39:48.897Z,12.88
2023-05-15T03:42:20.801Z,13.58
2023-05-15T03:44:50.990Z,12.33
2023-05-15T03:47:21.151Z,13.98
2023-05-15T03:49:51.697Z,12.65
2023-05-15T03:52:21.983Z,12.82
2023-05-15T03:54:55.199Z,13.40
2023-05-15T03:57:25.677Z,13.95
2023-05-15T03:59:55.865Z,14.10
2023-05-15T04:02:26.137Z,13.60
2023-05-15T04:04:56.543Z,14.10
2023-05-15T04:07:27.307Z,13.22
2023-05-15T04:09:57.658Z,13.48
2023-05-15T04:12:29.461Z,12.78
2023-05-15T04:15:02.364Z,12.93
2023-05-15T04:17:33.201Z,13.53
2023-05-15T04:20:03.463Z,12.85
2023-05-15T04:22:33.641Z,12.88
2023-05-15T04:25:04.341Z,11.93
2023-05-15T04:27:34.602Z,13.38
2023-05-15T04:30:05.004Z,13.40
2023-05-15T04:32:38.142Z,12.73
2023-05-15T04:35:13.214Z,12.93
2023-05-15T04:37:46.918Z,13.75
2023-05-15T04:40:19.180Z,13.43
2023-05-15T04:42:49.647Z,13.05
2023-05-15T04:45:28.579Z,14.15
2023-05-15T04:47:58.909Z,13.43
2023-05-15T04:50:29.578Z,14.38
2023-05-15T04:52:59.845Z,12.88
2023-05-15T04:55:31.153Z,14.25
2023-05-15T04:58:01.844Z,15.32
2023-05-15T05:00:32.098Z,14.03
2023-05-15T05:03:02.313Z,15.13
2023-05-15T05:05:32.578Z,14.80
2023-05-15T05:08:03.158Z,16.35
2023-05-15T05:10:33.218Z,16.07
2023-05-15T05:13:04.633Z,16.02
2023-05-15T05:15:35.332Z,16.07
2023-05-15T05:18:05.567Z,16.10
2023-05-15T05:20:35.790Z,14.90
2023-05-15T05:23:06.308Z,15.28
2023-05-15T05:25:36.898Z,14.20
2023-05-15T05:28:07.053Z,14.58
2023-05-15T05:30:37.100Z,14.47
2023-05-15T05:33:08.864Z,14.58
2023-05-15T05:35:40.198Z,14.75
2023-05-15T05:38:10.929Z,14.13
2023-05-15T05:40:42.047Z,14.73
2023-05-15T05:43:12.785Z,15.15
2023-05-15T05:45:43.547Z,14.00
2023-05-15T05:48:15.667Z,14.68
2023-05-15T05:50:48.766Z,15.03
2023-05-15T05:53:19.040Z,14.83
2023-05-15T05:55:50.160Z,14.80
2023-05-15T05:58:26.003Z,14.40
2023-05-15T06:00:54.405Z,14.87
2023-05-15T06:03:28.855Z,14.83
2023-05-15T06:06:01.273Z,15.93
2023-05-15T06:08:32.750Z,16.57
2023-05-15T06:11:04.268Z,15.50
2023-05-15T06:13:35.234Z,14.80
2023-05-15T06:16:07.584Z,15.38
2023-05-15T06:18:38.518Z,15.18
2023-05-15T06:21:09.373Z,14.95
2023-05-15T06:23:40.109Z,16.05
2023-05-15T06:26:11.054Z,14.20
2023-05-15T06:31:32.194Z,15.03
2023-05-15T06:34:03.091Z,16.02
2023-05-15T06:36:35.781Z,15.58
2023-05-15T06:39:06.759Z,15.20
2023-05-15T06:41:39.504Z,15.68
2023-05-15T06:44:10.232Z,16.17
2023-05-15T06:46:41.064Z,15.93
2023-05-15T06:49:11.867Z,14.63
2023-05-15T06:51:43.103Z,14.40
2023-05-15T06:54:14.892Z,14.28
2023-05-15T06:56:46.983Z,15.93
2023-05-15T06:59:18.221Z,15.98
2023-05-15T07:01:49.056Z,15.38
2023-05-15T07:04:20.516Z,15.23
2023-05-15T07:06:52.098Z,15.40
2023-05-15T07:09:22.825Z,17.12
2023-05-15T07:11:56.441Z,16.07
2023-05-15T07:14:28.054Z,16.40
2023-05-15T07:16:58.854Z,15.68
2023-05-15T07:19:29.894Z,16.67
2023-05-15T07:22:03.180Z,16.50
2023-05-15T07:24:34.515Z,16.40
2023-05-15T07:27:05.619Z,17.12
2023-05-15T07:29:37.647Z,17.12
2023-05-15T07:32:28.821Z,16.10
2023-05-15T07:34:59.753Z,17.20
2023-05-15T07:37:30.486Z,16.90
2023-05-15T07:40:03.112Z,16.65
2023-05-15T07:42:33.611Z,17.48
2023-05-15T07:45:07.967Z,16.52
2023-05-15T07:47:41.047Z,15.80
2023-05-15T07:50:17.200Z,15.78
2023-05-15T07:52:47.588Z,17.00
2023-05-15T07:55:18.895Z,15.80
2023-05-15T07:57:56.029Z,16.25
2023-05-15T08:00:29.998Z,15.93
2023-05-15T08:03:02.651Z,17.32
2023-05-15T08:05:36.724Z,16.93
2023-05-15T08:08:08.133Z,17.05
2023-05-15T08:10:44.380Z,16.87
2023-05-15T08:15:45.498Z,17.65
2023-05-15T08:18:16.307Z,16.32
2023-05-15T08:20:49.760Z,17.60
2023-05-15T08:23:22.405Z,16.93
2023-05-15T08:25:53.224Z,17.40
2023-05-15T08:28:25.421Z,16.95
2023-05-15T08:30:59.057Z,16.60
2023-05-15T08:33:31.236Z,14.87
2023-05-15T08:36:02.695Z,17.45
2023-05-15T08:38:34.050Z,15.50
2023-05-15T08:41:14.518Z,16.17
2023-05-15T08:43:56.036Z,17.73
2023-05-15T08:46:30.648Z,16.10
2023-05-15T08:49:03.932Z,16.82
2023-05-15T08:51:35.600Z,16.40
2023-05-15T08:54:07.182Z,17.20
2023-05-15T08:56:40.242Z,16.60
2023-05-15T08:59:11.347Z,16.27
2023-05-15T09:01:44.215Z,15.78
2023-05-15T09:04:15.433Z,16.50
2023-05-15T09:06:48.258Z,17.23
2023-05-15T09:09:20.083Z,17.50
2023-05-15T09:11:52.885Z,16.37
2023-05-15T09:14:24.129Z,16.55
2023-05-15T09:16:57.557Z,16.57
2023-05-15T09:19:29.593Z,17.20
2023-05-15T09:22:02.841Z,17.07
2023-05-15T09:24:39.882Z,15.58
2023-05-15T09:27:12.398Z,16.48
2023-05-15T09:29:43.623Z,18.30
2023-05-15T09:32:19.538Z,16.82
2023-05-15T09:34:50.494Z,16.87
2023-05-15T09:37:35.851Z,16.45
2023-05-15T09:40:18.675Z,17.05
2023-05-15T09:42:54.261Z,16.73
2023-05-15T09:45:27.163Z,17.45
2023-05-15T09:48:05.709Z,16.60
2023-05-15T09:50:42.473Z,17.40
2023-05-15T09:53:21.472Z,15.93
2023-05-15T09:55:51.612Z,17.62
2023-05-15T09:58:22.440Z,16.10
2023-05-15T10:00:54.643Z,17.25
2023-05-15T10:03:25.981Z,16.87
2023-05-15T10:06:05.150Z,16.82
2023-05-15T10:08:40.462Z,16.40
2023-05-15T10:11:11.721Z,16.82
2023-05-15T10:13:42.549Z,18.17
2023-05-15T10:16:14.764Z,17.23
2023-05-15T10:18:47.220Z,17.85
2023-05-15T10:21:19.500Z,17.00
2023-05-15T10:23:52.853Z,17.98
2023-05-15T10:26:29.200Z,17.05
2023-05-15T10:31:32.342Z,16.97
2023-05-15T10:34:03.655Z,16.80
2023-05-15T10:36:38.808Z,17.00
2023-05-15T10:39:10.979Z,17.40
2023-05-15T10:41:42.616Z,17.60
2023-05-15T10:44:13.708Z,17.15
2023-05-15T10:46:44.730Z,16.52
2023-05-15T10:49:15.469Z,18.25
2023-05-15T10:51:46.525Z,18.20
2023-05-15T10:54:17.552Z,17.70
2023-05-15T10:56:50.612Z,17.12
2023-05-15T10:59:20.963Z,17.70
2023-05-15T11:01:52.063Z,16.77
2023-05-15T11:04:26.866Z,16.32
2023-05-15T11:07:00.301Z,16.82
2023-05-15T11:09:39.264Z,17.75
2023-05-15T11:12:13.060Z,17.10
2023-05-15T11:14:46.371Z,18.07
2023-05-15T11:17:18.562Z,16.65
2023-05-15T11:19:58.988Z,18.00
2023-05-15T11:22:41.154Z,17.82
2023-05-15T11:25:13.994Z,17.48
2023-05-15T11:27:46.388Z,17.98
2023-05-15T11:30:26.198Z,19.00
2023-05-15T11:33:02.242Z,19.02
2023-05-15T11:35:44.592Z,19.10
2023-05-15T11:38:23.629Z,19.00
2023-05-15T11:40:57.501Z,19.32
2023-05-15T11:43:35.753Z,20.23
2023-05-15T11:46:09.389Z,19.00
2023-05-15T11:48:45.124Z,18.55
2023-05-15T11:51:30.576Z,19.87
2023-05-15T11:54:02.831Z,19.92
2023-05-15T11:56:33.918Z,20.37
2023-05-15T11:59:04.633Z,20.00
2023-05-15T12:01:45.180Z,20.77
2023-05-15T12:04:17.687Z,21.65
2023-05-15T12:06:50.444Z,21.07
2023-05-15T12:09:22.868Z,20.85
2023-05-15T12:11:57.773Z,23.10
2023-05-15T12:14:32.354Z,23.47
2023-05-15T12:17:07.098Z,25.30
2023-05-15T12:19:39.397Z,24.35
2023-05-15T12:22:10.885Z,27.82
2023-05-15T12:24:42.402Z,28.38
2023-05-15T12:27:14.140Z,27.10
2023-05-15T12:29:46.361Z,26.77
2023-05-15T12:32:17.501Z,26.35
2023-05-15T12:34:49.262Z,24.40
2023-05-15T12:37:24.774Z,24.20
2023-05-15T12:39:57.428Z,24.03
2023-05-15T12:42:29.006Z,23.25
2023-05-15T12:45:00.147Z,22.50
2023-05-15T12:47:31.319Z,23.57
2023-05-15T12:50:02.316Z,24.32
2023-05-15T12:52:34.339Z,24.40
2023-05-15T12:55:05.250Z,23.20
2023-05-15T12:57:37.289Z,25.05
2023-05-15T13:00:10.629Z,23.87
2023-05-15T13:02:41.641Z,24.10
2023-05-15T13:05:12.668Z,23.00
2023-05-15T13:07:46.691Z,23.25
2023-05-15T13:10:18.130Z,24.27
2023-05-15T13:12:49.254Z,24.72
2023-05-15T13:15:43.510Z,23.55
2023-05-15T13:18:17.197Z,23.83
2023-05-15T13:20:58.233Z,24.57
2023-05-15T13:23:28.237Z,24.43
2023-05-15T13:25:58.974Z,23.80
2023-05-15T13:28:29.898Z,24.18
2023-05-15T13:31:00.822Z,24.00
2023-05-15T13:33:31.848Z,24.95
2023-05-15T13:36:02.923Z,25.25
2023-05-15T13:38:33.854Z,26.30
2023-05-15T13:41:04.894Z,24.23
2023-05-15T13:43:41.724Z,25.00
2023-05-15T13:46:08.162Z,25.15
2023-05-15T13:48:39.154Z,24.70
2023-05-15T13:51:10.281Z,25.32
2023-05-15T13:53:41.670Z,25.57
2023-05-15T13:56:12.742Z,24.77
2023-05-15T13:58:43.624Z,24.57
2023-05-15T14:01:14.441Z,24.27
2023-05-15T14:03:45.338Z,23.87
2023-05-15T14:06:16.277Z,24.60
2023-05-15T14:08:47.377Z,25.50
2023-05-15T14:11:18.191Z,26.12
2023-05-15T14:13:49.271Z,24.15
2023-05-15T14:16:20.142Z,24.77
2023-05-15T14:18:51.247Z,26.45
2023-05-15T14:21:22.074Z,27.10
2023-05-15T14:23:52.842Z,26.90
2023-05-15T14:26:23.751Z,26.10
2023-05-15T14:28:54.673Z,26.30
2023-05-15T14:31:25.525Z,25.40
2023-05-15T14:33:56.776Z,25.23
2023-05-15T14:36:27.592Z,25.88
2023-05-15T14:39:00.300Z,25.88
2023-05-15T14:41:30.901Z,25.90
2023-05-15T14:44:01.863Z,25.35
2023-05-15T14:46:32.765Z,25.20
2023-05-15T14:49:03.562Z,26.12
2023-05-15T14:51:34.515Z,25.32
2023-05-15T14:54:06.517Z,25.08
2023-05-15T14:57:39.824Z,26.15
2023-05-15T14:59:09.552Z,26.15
2023-05-15T15:04:55.113Z,25.32
2023-05-15T15:07:27.272Z,24.63
2023-05-15T15:10:20.845Z,25.08
2023-05-15T15:12:40.082Z,25.50
2023-05-15T15:15:16.366Z,27.55
2023-05-15T15:17:46.572Z,25.60
2023-05-15T15:20:45.411Z,26.35
2023-05-15T15:26:22.655Z,26.05
2023-05-15T15:28:55.262Z,25.77
2023-05-15T15:31:26.279Z,26.45
2023-05-15T15:33:57.215Z,26.45
2023-05-15T15:36:28.245Z,27.95
2023-05-15T15:39:03.064Z,25.50
2023-05-15T15:44:13.455Z,26.65
2023-05-15T15:47:10.911Z,25.55
2023-05-15T15:49:51.740Z,27.55
2023-05-15T15:52:29.666Z,25.40
2023-05-15T15:55:08.138Z,26.60
2023-05-15T15:57:39.754Z,28.20
2023-05-15T16:00:12.576Z,27.95
2023-05-15T16:02:45.080Z,27.27
2023-05-15T16:05:19.059Z,29.05
2023-05-15T16:07:52.547Z,26.42
2023-05-15T16:10:23.431Z,27.02
2023-05-15T16:12:57.360Z,27.60
2023-05-15T16:15:29.577Z,28.00
2023-05-15T16:18:00.477Z,26.75
2023-05-15T16:20:34.306Z,27.77
2023-05-15T16:23:04.747Z,28.25
2023-05-15T16:25:38.036Z,27.35
2023-05-15T16:28:10.042Z,28.02
2023-05-15T16:30:48.714Z,27.98
2023-05-15T16:33:18.833Z,27.32
2023-05-15T16:36:14.809Z,26.85
2023-05-15T16:38:42.858Z,25.85
2023-05-15T16:41:19.490Z,26.17
2023-05-15T16:44:01.894Z,26.93
2023-05-15T16:46:43.287Z,27.73
2023-05-15T16:49:12.529Z,27.70
2023-05-15T16:52:01.349Z,26.60
2023-05-15T16:54:32.319Z,27.30
2023-05-15T16:57:03.052Z,26.48
2023-05-15T16:59:33.977Z,27.58
2023-05-15T17:02:32.477Z,27.22
2023-05-15T17:05:05.878Z,27.27
2023-05-15T17:07:37.181Z,27.67
2023-05-15T17:10:12.483Z,27.30
2023-05-15T17:12:43.315Z,27.82
2023-05-15T17:15:14.988Z,29.37
2023-05-15T17:17:46.035Z,27.75
2023-05-15T17:20:17.181Z,28.17
2023-05-15T17:22:48.055Z,27.93
2023-05-15T17:25:18.978Z,28.17
2023-05-15T17:27:49.700Z,28.47
2023-05-15T17:30:23.795Z,27.70
2023-05-15T17:32:54.829Z,28.87
2023-05-15T17:35:26.199Z,27.82
2023-05-15T17:37:57.262Z,28.47
2023-05-15T17:40:28.116Z,28.77
2023-05-15T17:42:58.870Z,29.35
2023-05-15T17:45:29.697Z,28.02
2023-05-15T17:48:01.845Z,29.55
2023-05-15T17:50:32.799Z,29.57
2023-05-15T17:53:03.642Z,29.25
2023-05-15T17:55:34.357Z,27.65
2023-05-15T17:58:05.083Z,28.23
2023-05-15T18:00:35.928Z,29.05
2023-05-15T18:03:06.911Z,28.32
2023-05-15T18:05:37.677Z,27.55
2023-05-15T18:08:08.415Z,26.75
2023-05-15T18:10:39.270Z,27.93
2023-05-15T18:13:10.010Z,27.10
2023-05-15T18:15:40.915Z,26.97
2023-05-15T18:18:12.139Z,28.02
2023-05-15T18:20:43.032Z,28.35
2023-05-15T18:23:15.516Z,28.80
2023-05-15T18:25:46.243Z,27.87
2023-05-15T18:28:17.417Z,27.48
2023-05-15T18:30:48.310Z,27.82
2023-05-15T18:33:19.163Z,26.73
2023-05-15T18:35:49.914Z,28.12
2023-05-15T18:38:20.867Z,28.52
2023-05-15T18:40:52.141Z,28.12
2023-05-15T18:43:22.907Z,27.95
2023-05-15T18:45:53.662Z,29.10
2023-05-15T18:48:24.396Z,26.40
2023-05-15T18:50:55.148Z,29.63
2023-05-15T18:53:26.013Z,29.32
2023-05-15T18:55:57.039Z,28.32
2023-05-15T18:58:27.773Z,28.80
2023-05-15T19:00:58.576Z,28.12
2023-05-15T19:03:29.757Z,28.40
2023-05-15T19:06:00.663Z,28.45
2023-05-15T19:08:31.426Z,28.85
2023-05-15T19:11:02.171Z,28.30
2023-05-15T19:13:34.236Z,29.00
2023-05-15T19:16:05.705Z,29.02
2023-05-15T19:18:36.645Z,28.65
2023-05-15T19:21:07.412Z,28.67
2023-05-15T19:23:38.253Z,28.85
2023-05-15T19:26:11.100Z,30.15
2023-05-15T19:28:41.946Z,28.35
2023-05-15T19:31:27.526Z,30.32
2023-05-15T19:33:44.908Z,29.05
2023-05-15T19:36:15.987Z,29.67
2023-05-15T19:38:46.792Z,29.20
2023-05-15T19:41:17.555Z,28.52
2023-05-15T19:43:49.665Z,27.98
2023-05-15T19:46:20.748Z,28.60
2023-05-15T19:48:51.763Z,28.87
2023-05-15T19:51:22.470Z,28.55
2023-05-15T19:53:53.184Z,30.23
2023-05-15T19:56:25.544Z,30.97
2023-05-15T19:58:56.380Z,29.60
2023-05-15T20:01:27.393Z,29.72
2023-05-15T20:03:58.370Z,31.17
2023-05-15T20:06:29.293Z,31.15
2023-05-15T20:09:00.055Z,29.92
2023-05-15T20:11:30.775Z,30.30
2023-05-15T20:14:01.724Z,31.65
2023-05-15T20:16:32.489Z,29.18
2023-05-15T20:19:03.271Z,30.97
2023-05-15T20:21:34.101Z,30.97
2023-05-15T20:24:04.809Z,30.75
2023-05-15T20:26:36.914Z,30.82
2023-05-15T20:29:08.138Z,32.38
2023-05-15T20:31:39.237Z,32.78
2023-05-15T20:34:10.048Z,32.50
2023-05-15T20:36:40.988Z,31.57
2023-05-15T20:39:12.512Z,32.23
2023-05-15T20:41:43.244Z,32.73
2023-05-15T20:44:13.983Z,32.33
2023-05-15T20:46:45.950Z,31.80
2023-05-15T20:49:16.874Z,31.37
2023-05-15T20:51:49.007Z,31.82
2023-05-15T20:54:19.795Z,31.17
2023-05-15T20:56:50.674Z,31.30
2023-05-15T20:59:21.613Z,32.05
2023-05-15T21:01:52.335Z,31.48
2023-05-15T21:04:23.161Z,31.52
2023-05-15T21:06:54.734Z,32.40
2023-05-15T21:09:25.443Z,30.32
2023-05-15T21:11:56.170Z,31.20
2023-05-15T21:14:26.906Z,30.40
2023-05-15T21:16:57.760Z,30.05
2023-05-15T21:19:28.687Z,30.52
2023-05-15T21:21:59.413Z,30.77
2023-05-15T21:24:30.169Z,31.75
2023-05-15T21:27:00.996Z,31.00
2023-05-15T21:29:31.808Z,31.25
2023-05-15T21:32:03.026Z,32.80
2023-05-15T21:34:33.980Z,31.50
2023-05-15T21:37:04.817Z,32.03
2023-05-15T21:39:35.578Z,31.90
2023-05-15T21:42:06.933Z,31.23
2023-05-15T21:44:37.884Z,30.17
2023-05-15T21:47:08.838Z,31.20
2023-05-15T21:49:39.592Z,32.53
2023-05-15T21:52:10.377Z,31.23
2023-05-15T21:54:41.119Z,30.97
2023-05-15T21:57:12.353Z,30.97
2023-05-15T21:59:43.181Z,32.15
2023-05-15T22:02:14.059Z,32.33
2023-05-15T22:04:44.745Z,31.68
2023-05-15T22:07:16.835Z,31.35
2023-05-15T22:09:47.584Z,32.50
2023-05-15T22:12:18.294Z,31.87
2023-05-15T22:14:58.263Z,32.28
2023-05-15T22:17:22.781Z,30.92
2023-05-15T22:19:53.583Z,31.55
2023-05-15T22:22:24.476Z,30.75
2023-05-15T22:24:55.206Z,31.80
2023-05-15T22:27:26.039Z,30.50
2023-05-15T22:29:56.924Z,30.00
2023-05-15T22:32:27.677Z,30.65
2023-05-15T22:34:59.279Z,29.32
2023-05-15T22:37:29.989Z,29.48
2023-05-15T22:40:00.895Z,29.87
2023-05-15T22:42:31.678Z,30.32
2023-05-15T22:45:02.410Z,31.73
2023-05-15T22:47:34.130Z,29.70
2023-05-15T22:50:04.861Z,29.95
2023-05-15T22:52:35.600Z,29.87
2023-05-15T22:55:06.768Z,30.85
2023-05-15T22:57:37.517Z,29.37
2023-05-15T23:00:09.231Z,29.92
2023-05-15T23:02:42.657Z,30.85
2023-05-15T23:05:13.174Z,31.35
2023-05-15T23:07:44.055Z,29.48
2023-05-15T23:10:14.882Z,28.73
2023-05-15T23:12:45.814Z,29.77
2023-05-15T23:15:17.534Z,28.70
2023-05-15T23:17:48.289Z,29.25
2023-05-15T23:20:19.328Z,29.57
2023-05-15T23:22:50.157Z,30.37
2023-05-15T23:25:21.209Z,30.90
2023-05-15T23:27:51.964Z,29.92
2023-05-15T23:30:22.965Z,29.42
2023-05-15T23:33:05.892Z,28.50
2023-05-15T23:35:36.796Z,29.23
2023-05-15T23:38:10.031Z,29.67
2023-05-15T23:40:40.766Z,29.25
2023-05-15T23:43:11.538Z,29.82
2023-05-15T23:45:42.280Z,29.70
2023-05-15T23:48:13.965Z,29.32
2023-05-15T23:50:44.890Z,29.10
2023-05-15T23:53:15.615Z,29.15
2023-05-15T23:55:46.353Z,31.70
2023-05-15T23:58:17.059Z,30.52
